createdAt,value
2023-01-23T07:35:14.812Z,27.90
2023-01-23T07:37:42.597Z,25.23
2023-01-23T07:40:12.014Z,26.08
2023-01-23T07:42:40.039Z,26.83
2023-01-23T07:45:08.618Z,29.15
2023-01-23T07:47:36.608Z,25.02
2023-01-23T07:50:05.132Z,28.43
2023-01-23T07:52:34.405Z,27.58
2023-01-23T07:55:02.349Z,26.77
2023-01-23T07:57:30.008Z,26.52
2023-01-23T07:59:57.703Z,27.00
2023-01-23T08:02:25.528Z,24.65
2023-01-23T08:04:53.203Z,25.85
2023-01-23T08:07:21.348Z,26.83
2023-01-23T08:09:50.610Z,24.17
2023-01-23T08:12:18.309Z,27.75
2023-01-23T08:14:46.306Z,23.80
2023-01-23T08:17:14.247Z,25.05
2023-01-23T08:19:42.131Z,27.05
2023-01-23T08:25:03.031Z,24.40
2023-01-23T08:27:30.791Z,22.20
2023-01-23T08:29:58.487Z,24.23
2023-01-23T08:32:26.542Z,22.55
2023-01-23T08:34:55.062Z,23.65
2023-01-23T08:37:22.687Z,25.00
2023-01-23T08:39:50.445Z,25.67
2023-01-23T08:42:19.471Z,24.58
2023-01-23T08:44:47.262Z,21.30
2023-01-23T08:47:15.010Z,23.47
2023-01-23T08:49:42.709Z,24.50
2023-01-23T08:52:10.493Z,24.20
2023-01-23T08:54:38.286Z,23.90
2023-01-23T08:57:06.163Z,23.08
2023-01-23T08:59:35.673Z,25.65
2023-01-23T09:02:03.735Z,26.38
2023-01-23T09:04:31.916Z,28.30
2023-01-23T09:25:49.600Z,26.60
2023-01-23T09:28:17.333Z,28.30
2023-01-23T09:30:45.158Z,28.83
2023-01-23T09:33:14.470Z,29.53
2023-01-23T09:35:42.176Z,28.00
2023-01-23T09:38:09.873Z,26.08
2023-01-23T09:40:39.359Z,26.10
2023-01-23T09:43:13.742Z,24.75
2023-01-23T09:45:43.397Z,31.50
2023-01-23T09:48:20.857Z,28.92
2023-01-23T09:50:55.469Z,29.38
2023-01-23T09:53:25.213Z,28.93
2023-01-23T09:55:58.172Z,26.77
2023-01-23T09:58:29.977Z,27.38
2023-01-23T10:01:03.166Z,30.85
2023-01-23T10:03:33.691Z,30.70
2023-01-23T10:06:08.694Z,30.25
2023-01-23T10:08:40.991Z,26.45
2023-01-23T10:11:09.940Z,33.22
2023-01-23T10:13:50.272Z,28.07
2023-01-23T10:16:45.019Z,29.13
2023-01-23T10:19:30.272Z,25.80
2023-01-23T10:22:03.338Z,25.38
2023-01-23T10:24:44.656Z,28.38
2023-01-23T10:27:20.379Z,27.98
2023-01-23T10:29:50.907Z,25.38
2023-01-23T10:32:26.880Z,29.45
2023-01-23T10:34:59.176Z,24.90
2023-01-23T10:37:37.683Z,24.60
2023-01-23T10:40:09.268Z,30.13
2023-01-23T10:42:37.354Z,23.73
2023-01-23T10:45:05.851Z,24.15
2023-01-23T10:47:40.563Z,27.55
2023-01-23T10:50:12.856Z,26.85
2023-01-23T10:52:42.365Z,29.75
2023-01-23T10:55:29.331Z,25.40
2023-01-23T10:57:58.560Z,27.77
2023-01-23T11:00:31.503Z,24.73
2023-01-23T11:03:19.856Z,31.10
2023-01-23T11:14:53.964Z,28.30
2023-01-23T11:17:24.936Z,32.83
2023-01-23T11:19:54.812Z,27.30
2023-01-23T11:22:32.697Z,30.00
2023-01-23T11:25:03.330Z,31.02
2023-01-23T11:27:32.091Z,30.10
2023-01-23T11:30:28.970Z,33.85
2023-01-23T11:32:59.625Z,31.13
2023-01-23T11:35:46.819Z,32.30
2023-01-23T11:38:27.287Z,29.37
2023-01-23T11:40:58.079Z,33.85
2023-01-23T11:43:25.834Z,30.60
2023-01-23T11:46:24.599Z,29.15
2023-01-23T11:49:11.604Z,32.53
2023-01-23T11:51:43.413Z,33.92
2023-01-23T11:54:28.066Z,33.05
2023-01-23T11:57:10.883Z,33.23
2023-01-23T11:59:47.150Z,35.78
2023-01-23T12:02:33.803Z,39.45
2023-01-23T12:05:08.311Z,35.50
2023-01-23T12:07:41.487Z,34.35
2023-01-23T12:10:18.701Z,35.05
2023-01-23T12:13:03.440Z,38.25
2023-01-23T12:15:38.663Z,35.13
2023-01-23T12:18:17.228Z,33.33
2023-01-23T12:20:54.305Z,36.10
2023-01-23T12:23:41.928Z,34.20
2023-01-23T12:26:15.602Z,37.72
2023-01-23T12:29:24.655Z,35.22
2023-01-23T12:32:07.982Z,33.53
2023-01-23T12:34:57.982Z,35.10
2023-01-23T12:37:39.373Z,31.95
2023-01-23T12:40:12.790Z,35.53
2023-01-23T12:42:48.594Z,36.75
2023-01-23T12:45:22.398Z,33.83
2023-01-23T12:47:55.219Z,33.60
2023-01-23T12:50:26.020Z,37.70
2023-01-23T12:52:59.667Z,36.85
2023-01-23T12:55:31.294Z,35.45
2023-01-23T12:58:09.005Z,32.83
2023-01-23T13:00:46.692Z,35.10
2023-01-23T13:03:37.283Z,34.90
2023-01-23T13:06:21.717Z,31.42
2023-01-23T13:09:05.577Z,37.13
2023-01-23T13:11:46.602Z,32.97
2023-01-23T13:14:29.140Z,37.10
2023-01-23T13:16:58.916Z,32.38
2023-01-23T13:19:45.842Z,30.48
2023-01-23T13:22:27.279Z,39.08
2023-01-23T13:25:12.729Z,30.80
2023-01-23T13:30:44.967Z,29.17
2023-01-23T13:33:55.231Z,34.33
2023-01-23T13:36:31.548Z,31.20
2023-01-23T13:39:32.033Z,32.00
2023-01-23T13:42:45.881Z,32.55
2023-01-23T13:45:24.187Z,36.47
